Time;durP1;ratioP1;P1;durP2;ratioP2;P2;SDS_P1;SDS_P2;PMS_P1;PMS_P2;Temp;Humidity;BMP_temperature;BMP_pressure;BME280_temperature;BME280_humidity;BME280_pressure;Samples;Min_cycle;Max_cycle;Signal;HPM_P1;HPM_P2
2021/10/18 00:01:53;;;;;;;846.13;796.73;;;6.50;99.90;;;;;;5015408;28;20984;-88
2021/10/18 00:04:21;;;;;;;844.23;795.43;;;6.40;99.90;;;;;;5014910;28;20890;-87
2021/10/18 00:06:48;;;;;;;842.13;793.10;;;6.30;99.90;;;;;;5015334;28;20523;-88
2021/10/18 00:09:15;;;;;;;862.00;810.80;;;6.20;99.90;;;;;;5015206;28;20486;-86
2021/10/18 00:11:42;;;;;;;884.00;829.53;;;6.20;99.90;;;;;;5014963;28;20454;-87
2021/10/18 00:14:10;;;;;;;893.13;835.27;;;6.10;99.90;;;;;;5014096;28;20644;-83
2021/10/18 00:16:39;;;;;;;892.83;834.23;;;6.00;99.90;;;;;;5015144;28;20469;-85
2021/10/18 00:19:07;;;;;;;900.87;841.00;;;6.00;99.90;;;;;;5015233;28;20491;-86
2021/10/18 00:21:37;;;;;;;892.20;834.90;;;6.00;99.90;;;;;;5014984;28;20568;-86
2021/10/18 00:24:05;;;;;;;889.20;832.43;;;5.80;99.90;;;;;;5014728;28;20956;-84
2021/10/18 00:26:32;;;;;;;901.53;845.23;;;5.80;99.90;;;;;;5014987;28;20520;-88
2021/10/18 00:28:59;;;;;;;893.40;837.20;;;5.80;99.90;;;;;;5013966;28;20556;-85
2021/10/18 00:31:26;;;;;;;890.93;833.43;;;5.60;99.90;;;;;;5014892;28;20457;-84
2021/10/18 00:33:53;;;;;;;901.37;842.07;;;5.50;99.90;;;;;;5014931;28;20453;-81
2021/10/18 00:36:20;;;;;;;904.80;844.80;;;5.50;99.90;;;;;;5014881;28;20464;-83
2021/10/18 00:38:48;;;;;;;905.27;843.80;;;5.40;99.90;;;;;;5014644;28;20463;-84
2021/10/18 00:41:17;;;;;;;909.83;847.33;;;5.50;99.90;;;;;;5014754;28;20457;-83
2021/10/18 00:43:46;;;;;;;905.23;843.40;;;5.40;99.90;;;;;;5014011;28;20489;-85
2021/10/18 00:46:13;;;;;;;905.33;843.70;;;5.40;99.90;;;;;;5014622;28;20457;-85
2021/10/18 00:48:40;;;;;;;906.67;845.47;;;5.20;99.90;;;;;;5014645;28;20942;-84
2021/10/18 00:51:08;;;;;;;902.23;841.60;;;5.30;99.90;;;;;;5014337;28;20453;-87
2021/10/18 00:53:35;;;;;;;918.83;853.90;;;5.20;99.90;;;;;;5014584;28;20472;-88
2021/10/18 00:56:04;;;;;;;916.00;851.53;;;5.10;99.90;;;;;;5014444;28;20473;-87
2021/10/18 00:58:31;;;;;;;917.10;850.47;;;5.00;99.90;;;;;;5013455;28;20524;-85
2021/10/18 01:00:59;;;;;;;905.37;840.40;;;5.00;99.90;;;;;;5014434;28;20881;-87
2021/10/18 01:03:27;;;;;;;907.63;842.80;;;4.90;99.90;;;;;;5014315;28;20581;-86
2021/10/18 01:05:54;;;;;;;919.63;853.83;;;5.00;99.90;;;;;;5014220;28;21219;-89
2021/10/18 01:08:24;;;;;;;926.70;860.23;;;5.00;99.90;;;;;;5014117;28;20516;-84
2021/10/18 01:10:51;;;;;;;916.83;850.10;;;4.90;99.90;;;;;;5014094;28;20548;-82
2021/10/18 01:13:19;;;;;;;917.37;851.30;;;4.90;99.90;;;;;;5012977;28;20948;-86
2021/10/18 01:15:46;;;;;;;927.83;862.03;;;4.80;99.90;;;;;;5014182;28;20479;-85
2021/10/18 01:18:13;;;;;;;925.53;856.90;;;4.70;99.90;;;;;;5013988;28;20552;-85
2021/10/18 01:20:42;;;;;;;941.80;871.93;;;4.80;99.90;;;;;;5014228;28;20464;-85
2021/10/18 01:23:11;;;;;;;924.23;854.77;;;4.60;99.90;;;;;;5013125;28;20861;-81
2021/10/18 01:25:39;;;;;;;953.60;877.43;;;4.50;99.90;;;;;;5013782;28;20576;-82
2021/10/18 01:28:09;;;;;;;934.37;862.57;;;4.60;99.90;;;;;;5012850;28;20453;-84
2021/10/18 01:30:36;;;;;;;934.20;864.23;;;4.60;99.90;;;;;;5013732;28;21004;-84
2021/10/18 01:33:03;;;;;;;930.43;860.23;;;4.60;99.90;;;;;;5013705;28;20457;-85
2021/10/18 01:35:30;;;;;;;925.80;855.57;;;4.50;99.90;;;;;;5013705;28;20456;-86
2021/10/18 01:37:59;;;;;;;934.13;862.87;;;4.50;99.90;;;;;;5013713;28;20449;-81
2021/10/18 01:40:29;;;;;;;936.27;863.30;;;4.50;99.90;;;;;;5013686;28;20525;-87
2021/10/18 01:42:58;;;;;;;952.87;877.37;;;4.40;99.90;;;;;;5012296;28;20489;-84
2021/10/18 01:45:25;;;;;;;933.93;860.10;;;4.40;99.90;;;;;;5013598;28;20481;-85
2021/10/18 01:47:52;;;;;;;948.77;874.00;;;4.40;99.90;;;;;;5013742;28;20449;-84
2021/10/18 01:50:22;;;;;;;936.17;860.80;;;4.50;99.90;;;;;;5013423;28;20552;-86
2021/10/18 01:52:50;;;;;;;945.53;869.47;;;4.60;99.90;;;;;;5013416;28;21012;-88
2021/10/18 01:55:20;;;;;;;953.27;877.47;;;4.70;99.90;;;;;;5013357;28;20564;-86
2021/10/18 01:57:48;;;;;;;962.90;886.30;;;4.50;99.90;;;;;;5012232;28;20459;-81
2021/10/18 02:00:15;;;;;;;952.90;876.97;;;4.40;99.90;;;;;;5013483;28;20480;-87
2021/10/18 02:02:43;;;;;;;952.67;875.67;;;4.60;99.90;;;;;;5013248;28;21082;-86
2021/10/18 02:05:10;;;;;;;956.33;877.97;;;4.50;99.90;;;;;;5013215;28;20556;-83
2021/10/18 02:07:37;;;;;;;975.23;896.33;;;4.70;99.90;;;;;;5013056;28;21019;-86
2021/10/18 02:10:07;;;;;;;969.93;891.77;;;4.70;99.90;;;;;;5013208;28;20461;-84
2021/10/18 02:12:36;;;;;;;969.03;891.77;;;4.70;99.90;;;;;;5013011;28;21024;-84
2021/10/18 02:15:03;;;;;;;952.37;875.00;;;4.80;99.90;;;;;;5012428;28;20493;-82
2021/10/18 02:17:30;;;;;;;942.30;866.20;;;4.50;99.90;;;;;;5013070;28;20560;-86
2021/10/18 02:19:57;;;;;;;939.47;863.53;;;4.40;99.90;;;;;;5013363;28;20465;-84
2021/10/18 02:22:24;;;;;;;949.40;873.43;;;4.30;99.90;;;;;;5013038;28;20477;-86
2021/10/18 02:24:53;;;;;;;950.30;873.90;;;4.30;99.90;;;;;;5012924;28;20545;-85
2021/10/18 02:27:19;;;;;;;963.73;884.23;;;4.20;99.90;;;;;;5012956;28;20500;-86
2021/10/18 02:29:48;;;;;;;954.73;875.67;;;4.30;99.90;;;;;;5011519;28;20449;-88
2021/10/18 02:32:14;;;;;;;948.23;871.47;;;4.20;99.90;;;;;;5019167;28;20495;-83
2021/10/18 02:34:41;;;;;;;954.70;877.13;;;4.30;99.90;;;;;;5036669;28;20474;-84
2021/10/18 02:37:08;;;;;;;957.17;877.57;;;4.30;99.90;;;;;;5030808;28;20881;-87
2021/10/18 02:39:35;;;;;;;951.67;873.10;;;4.20;99.90;;;;;;5016977;28;20966;-90
2021/10/18 02:42:02;;;;;;;951.83;872.93;;;4.30;99.90;;;;;;5016851;28;20547;-84
2021/10/18 02:44:29;;;;;;;948.60;871.00;;;4.20;99.90;;;;;;5015907;28;20465;-88
2021/10/18 02:46:57;;;;;;;953.50;873.73;;;4.10;99.90;;;;;;5009165;28;20467;-88
2021/10/18 02:49:24;;;;;;;977.70;893.83;;;4.10;99.90;;;;;;5017454;28;20492;-89
2021/10/18 02:51:51;;;;;;;959.70;876.70;;;4.30;99.90;;;;;;5017176;28;20588;-86
2021/10/18 02:54:18;;;;;;;972.97;889.47;;;4.30;99.90;;;;;;5016786;28;20576;-87
2021/10/18 02:56:45;;;;;;;972.53;888.67;;;4.30;99.90;;;;;;5016808;28;20485;-87
2021/10/18 02:59:12;;;;;;;986.63;902.23;;;4.40;99.90;;;;;;5015880;28;20492;-86
2021/10/18 03:01:38;;;;;;;1006.47;920.43;;;4.50;99.90;;;;;;5016736;28;20458;-85
2021/10/18 03:04:07;;;;;;;995.43;911.57;;;4.50;99.90;;;;;;5016091;28;20488;-82
2021/10/18 03:06:34;;;;;;;996.17;911.80;;;4.50;99.90;;;;;;5016407;28;20888;-82
2021/10/18 03:09:01;;;;;;;1011.97;924.73;;;4.60;99.90;;;;;;5016582;28;20457;-88
2021/10/18 03:11:28;;;;;;;1009.70;923.23;;;4.60;99.90;;;;;;5016532;28;20489;-88
2021/10/18 03:13:55;;;;;;;1017.20;928.53;;;4.50;99.90;;;;;;5014904;28;20536;-85
2021/10/18 03:16:22;;;;;;;1020.43;932.27;;;4.70;99.90;;;;;;5016578;28;20453;-81
2021/10/18 03:18:49;;;;;;;1013.27;925.80;;;4.80;99.90;;;;;;5016560;28;20457;-85
2021/10/18 03:21:18;;;;;;;1026.90;938.93;;;4.90;99.90;;;;;;5016240;28;20553;-90
2021/10/18 03:23:44;;;;;;;1028.73;941.00;;;4.90;99.90;;;;;;5016041;28;20527;-88
2021/10/18 03:26:11;;;;;;;1028.63;941.37;;;4.80;99.90;;;;;;5016088;28;20492;-84
2021/10/18 03:28:38;;;;;;;1019.60;932.17;;;4.90;99.90;;;;;;5014945;28;20461;-88
2021/10/18 03:31:05;;;;;;;1012.87;925.87;;;4.80;99.90;;;;;;5016142;28;20548;-87
2021/10/18 03:33:35;;;;;;;1014.53;926.33;;;4.80;99.90;;;;;;5016149;28;20548;-82
2021/10/18 03:36:02;;;;;;;1013.20;923.43;;;4.90;99.90;;;;;;5015782;28;20457;-90
2021/10/18 03:38:31;;;;;;;1015.80;925.80;;;4.80;99.90;;;;;;5015917;28;20467;-87
2021/10/18 03:40:59;;;;;;;1013.87;923.33;;;4.80;99.90;;;;;;5015812;28;20461;-87
2021/10/18 03:43:26;;;;;;;1013.43;921.87;;;4.80;99.90;;;;;;5014916;28;20575;-88
2021/10/18 03:45:53;;;;;;;995.70;906.73;;;4.80;99.90;;;;;;5015318;28;20467;-86
2021/10/18 03:48:19;;;;;;;1011.87;920.60;;;4.80;99.90;;;;;;5016498;28;20493;-92
2021/10/18 03:50:46;;;;;;;1020.53;931.23;;;4.90;99.90;;;;;;5016277;28;20540;-85
2021/10/18 03:53:14;;;;;;;1026.60;935.80;;;4.80;99.90;;;;;;5015729;28;20481;-79
2021/10/18 03:55:43;;;;;;;1031.53;940.63;;;4.80;99.90;;;;;;5016290;28;20464;-84
2021/10/18 03:58:13;;;;;;;1029.90;939.40;;;4.80;99.90;;;;;;5014430;28;20453;-87
2021/10/18 04:00:52;;;;;;;1025.30;933.83;;;4.80;99.90;;;;;;5015645;28;20567;-80
2021/10/18 04:03:18;;;;;;;1015.30;923.60;;;4.70;99.90;;;;;;5015496;28;20493;-83
2021/10/18 04:05:45;;;;;;;1010.70;918.47;;;4.90;99.90;;;;;;5015642;28;20459;-84
2021/10/18 04:08:12;;;;;;;1031.90;940.00;;;4.90;99.90;;;;;;5015335;28;20803;-84
2021/10/18 04:10:43;;;;;;;1033.03;941.73;;;5.00;99.90;;;;;;5015394;28;20485;-84
2021/10/18 04:13:15;;;;;;;1028.47;936.63;;;5.10;99.90;;;;;;5014683;28;20461;-84
2021/10/18 04:15:42;;;;;;;1036.90;947.27;;;5.10;99.90;;;;;;5015261;28;20468;-85
2021/10/18 04:18:08;;;;;;;1037.90;947.10;;;5.10;99.90;;;;;;5015274;28;20862;-88
2021/10/18 04:20:35;;;;;;;1023.33;932.83;;;4.90;99.90;;;;;;5015108;28;20453;-84
2021/10/18 04:23:04;;;;;;;1027.93;937.57;;;5.00;99.90;;;;;;5015063;28;20495;-85
2021/10/18 04:25:31;;;;;;;1019.73;928.40;;;4.90;99.90;;;;;;5014845;28;20530;-84
2021/10/18 04:27:59;;;;;;;1019.20;927.90;;;5.00;99.90;;;;;;5014130;28;20560;-88
2021/10/18 04:30:26;;;;;;;1028.73;937.80;;;5.10;99.90;;;;;;5014896;28;20457;-85
2021/10/18 04:32:54;;;;;;;1027.43;935.73;;;5.00;99.90;;;;;;5014923;28;20557;-85
2021/10/18 04:35:21;;;;;;;1026.50;935.23;;;5.00;99.90;;;;;;5015207;28;20471;-84
2021/10/18 04:37:50;;;;;;;1029.00;937.53;;;5.00;99.90;;;;;;5015287;28;20460;-88
2021/10/18 04:40:17;;;;;;;1026.10;935.43;;;5.00;99.90;;;;;;5014929;28;20941;-87
2021/10/18 04:42:43;;;;;;;1038.40;947.03;;;5.10;99.90;;;;;;5013611;28;20822;-86
2021/10/18 04:45:12;;;;;;;1031.03;938.90;;;5.20;99.90;;;;;;5014813;28;20544;-86
2021/10/18 04:47:42;;;;;;;1013.20;921.90;;;5.20;99.90;;;;;;5014652;28;20453;-84
2021/10/18 04:50:11;;;;;;;1027.20;937.13;;;5.10;99.90;;;;;;5014680;28;20457;-87
2021/10/18 04:52:39;;;;;;;1020.40;929.03;;;5.10;99.90;;;;;;5014306;28;20481;-84
2021/10/18 04:55:07;;;;;;;1014.53;923.33;;;5.10;99.90;;;;;;5014665;28;20481;-85
2021/10/18 04:57:34;;;;;;;1017.63;926.53;;;5.10;99.90;;;;;;5013379;28;20468;-85
2021/10/18 05:00:01;;;;;;;1002.50;910.97;;;5.20;99.90;;;;;;5013365;28;20544;-83
2021/10/18 05:02:33;;;;;;;1014.33;922.87;;;5.10;99.90;;;;;;5014387;28;20863;-87
2021/10/18 05:04:59;;;;;;;1019.20;928.10;;;5.20;99.90;;;;;;5014111;28;21034;-86
2021/10/18 05:07:26;;;;;;;994.00;903.00;;;5.20;99.90;;;;;;5016037;28;20485;-84
2021/10/18 05:09:53;;;;;;;1003.07;912.87;;;5.10;99.90;;;;;;5033901;28;20535;-87
2021/10/18 05:12:20;;;;;;;1003.27;913.23;;;5.00;99.90;;;;;;5034248;28;20543;-87
2021/10/18 05:14:47;;;;;;;988.47;899.57;;;4.90;99.90;;;;;;5033799;28;20515;-87
2021/10/18 05:17:14;;;;;;;1005.47;915.87;;;4.90;99.90;;;;;;5034263;28;20551;-86
2021/10/18 05:19:42;;;;;;;991.33;901.10;;;4.80;99.90;;;;;;5033925;28;20874;-87
2021/10/18 05:22:09;;;;;;;1006.17;914.10;;;4.80;99.90;;;;;;5031794;28;20467;-84
2021/10/18 05:24:36;;;;;;;1009.57;918.20;;;4.90;99.90;;;;;;5031095;28;20584;-81
2021/10/18 05:27:04;;;;;;;1011.83;920.93;;;4.70;99.90;;;;;;5033737;28;20606;-83
2021/10/18 05:29:31;;;;;;;1011.90;921.50;;;4.80;99.90;;;;;;5032666;28;20476;-84
2021/10/18 05:31:58;;;;;;;1003.70;914.40;;;4.80;99.90;;;;;;5033706;28;20496;-86
2021/10/18 05:34:25;;;;;;;1024.20;934.97;;;4.70;99.90;;;;;;5031696;28;20543;-87
2021/10/18 05:36:58;;;;;;;1013.43;924.13;;;4.60;99.90;;;;;;5033387;28;20482;-84
2021/10/18 05:39:25;;;;;;;1003.03;913.93;;;4.50;99.90;;;;;;5033516;28;20543;-86
2021/10/18 05:41:52;;;;;;;1026.67;935.50;;;4.40;99.90;;;;;;5033360;28;20543;-87
2021/10/18 05:44:21;;;;;;;1031.63;940.07;;;4.50;99.90;;;;;;5032269;28;21065;-85
2021/10/18 05:46:47;;;;;;;1014.53;922.73;;;4.40;99.90;;;;;;5033478;28;20456;-87
2021/10/18 05:49:14;;;;;;;1022.67;930.60;;;4.50;99.90;;;;;;5033231;28;20456;-85
2021/10/18 05:51:41;;;;;;;1018.60;925.63;;;4.60;99.90;;;;;;5033135;28;20456;-82
2021/10/18 05:54:10;;;;;;;1028.73;936.87;;;4.60;99.90;;;;;;5033502;28;20476;-84
2021/10/18 05:56:37;;;;;;;1032.67;940.20;;;4.60;99.90;;;;;;5033205;28;20452;-87
2021/10/18 05:59:05;;;;;;;1033.53;940.40;;;4.70;99.90;;;;;;5031968;28;20478;-85
2021/10/18 06:01:32;;;;;;;1046.37;952.33;;;4.90;99.90;;;;;;5033106;28;20502;-87
2021/10/18 06:04:02;;;;;;;1035.17;940.93;;;5.00;99.90;;;;;;5020302;28;20481;-82
2021/10/18 06:06:31;;;;;;;1047.33;954.40;;;5.10;99.90;;;;;;5013377;28;20963;-85
2021/10/18 06:08:58;;;;;;;1027.00;934.93;;;5.00;99.90;;;;;;5012944;28;20959;-82
2021/10/18 06:11:29;;;;;;;1021.50;929.83;;;5.20;99.90;;;;;;5013310;28;20527;-82
2021/10/18 06:13:56;;;;;;;1019.53;927.97;;;5.30;99.90;;;;;;5023903;28;20499;-83
2021/10/18 06:16:23;;;;;;;1019.20;927.20;;;5.20;99.90;;;;;;5032943;28;20606;-88
2021/10/18 06:18:50;;;;;;;1021.43;930.33;;;5.30;99.90;;;;;;5032857;28;20453;-86
2021/10/18 06:21:17;;;;;;;1012.70;921.50;;;5.40;99.90;;;;;;5033019;28;20448;-87
2021/10/18 06:23:44;;;;;;;1001.50;911.70;;;5.40;99.90;;;;;;5032868;28;20482;-86
2021/10/18 06:26:11;;;;;;;991.23;901.07;;;5.50;99.90;;;;;;5032577;28;20495;-87
2021/10/18 06:28:40;;;;;;;986.23;896.53;;;5.50;99.90;;;;;;5031648;28;20462;-86
2021/10/18 06:31:07;;;;;;;991.67;902.27;;;5.60;99.90;;;;;;5032587;28;20453;-86
2021/10/18 06:33:35;;;;;;;998.30;908.63;;;5.60;99.90;;;;;;5032764;28;20452;-87
2021/10/18 06:36:02;;;;;;;972.30;884.23;;;5.70;99.90;;;;;;5032648;28;20547;-87
2021/10/18 06:38:29;;;;;;;964.90;876.13;;;5.70;99.90;;;;;;5032670;28;20551;-87
2021/10/18 06:40:56;;;;;;;963.17;875.67;;;5.70;99.90;;;;;;5032802;28;20459;-87
2021/10/18 06:43:23;;;;;;;956.23;869.40;;;5.90;99.90;;;;;;5031561;28;20456;-86
2021/10/18 06:45:51;;;;;;;921.77;835.63;;;5.90;99.90;;;;;;5032698;28;20974;-85
2021/10/18 06:48:18;;;;;;;912.53;826.80;;;6.00;99.90;;;;;;5032601;28;20454;-86
2021/10/18 06:50:47;;;;;;;902.57;818.90;;;6.20;99.90;;;;;;5032720;28;20535;-87
2021/10/18 06:53:16;;;;;;;891.07;807.50;;;6.30;99.90;;;;;;5032787;28;20579;-86
2021/10/18 06:55:43;;;;;;;899.17;818.07;;;6.40;99.90;;;;;;5032588;28;20444;-90
2021/10/18 06:58:10;;;;;;;890.97;812.53;;;6.50;99.90;;;;;;5031212;28;20488;-86
2021/10/18 07:00:37;;;;;;;877.60;799.30;;;6.70;99.90;;;;;;5032428;28;20849;-88
2021/10/18 07:03:06;;;;;;;889.93;810.80;;;6.60;99.90;;;;;;5032586;28;20448;-86
2021/10/18 07:05:33;;;;;;;874.53;795.90;;;6.70;99.90;;;;;;5032453;28;20484;-86
2021/10/18 07:08:03;;;;;;;881.00;802.80;;;6.80;99.90;;;;;;5032484;28;20852;-85
2021/10/18 07:10:30;;;;;;;890.17;813.13;;;6.90;99.90;;;;;;5032674;28;20462;-88
2021/10/18 07:12:59;;;;;;;879.17;803.70;;;6.90;99.90;;;;;;5030949;28;20464;-86
2021/10/18 07:15:28;;;;;;;889.73;814.13;;;7.00;99.90;;;;;;5032387;28;20981;-87
2021/10/18 07:17:55;;;;;;;879.93;806.57;;;7.10;99.90;;;;;;5032775;28;20449;-87
2021/10/18 07:20:23;;;;;;;871.13;799.17;;;7.20;99.90;;;;;;5033865;28;20479;-84
2021/10/18 07:22:52;;;;;;;870.43;801.00;;;7.20;99.90;;;;;;5036185;28;20457;-87
2021/10/18 07:25:20;;;;;;;866.70;798.90;;;7.30;99.90;;;;;;5035797;28;20530;-88
2021/10/18 07:27:47;;;;;;;850.47;785.17;;;7.40;99.90;;;;;;5034728;28;20594;-86
2021/10/18 07:30:14;;;;;;;853.43;790.33;;;7.40;99.90;;;;;;5035888;28;20484;-87
2021/10/18 07:32:43;;;;;;;857.10;795.70;;;7.60;99.90;;;;;;5035857;28;20456;-88
2021/10/18 07:35:11;;;;;;;850.70;791.93;;;7.50;99.90;;;;;;5035915;28;20480;-87
2021/10/18 07:37:40;;;;;;;838.60;781.60;;;7.70;99.90;;;;;;5035805;28;20543;-88
2021/10/18 07:40:09;;;;;;;841.90;785.30;;;7.80;99.90;;;;;;5035654;28;20452;-87
2021/10/18 07:42:38;;;;;;;833.10;779.53;;;7.80;99.90;;;;;;5001075;28;20448;-88
2021/10/18 07:45:06;;;;;;;810.67;758.33;;;7.90;99.90;;;;;;5035174;28;20860;-88
2021/10/18 07:47:33;;;;;;;802.43;753.10;;;8.00;99.90;;;;;;5036004;28;20522;-88
2021/10/18 07:50:00;;;;;;;777.00;732.53;;;8.10;99.90;;;;;;5035616;28;20518;-88
2021/10/18 07:52:27;;;;;;;738.47;697.93;;;8.00;99.90;;;;;;5035618;28;20478;-87
2021/10/18 07:55:01;;;;;;;722.93;684.07;;;8.20;99.90;;;;;;5035324;28;20456;-88
2021/10/18 07:57:29;;;;;;;700.60;664.97;;;8.30;99.90;;;;;;5035672;28;20947;-88
2021/10/18 07:59:56;;;;;;;621.93;592.53;;;8.40;99.90;;;;;;5034193;28;20510;-87
2021/10/18 08:02:23;;;;;;;524.77;500.87;;;8.50;99.90;;;;;;5035539;28;20543;-88
2021/10/18 08:04:50;;;;;;;478.67;457.93;;;8.50;99.90;;;;;;5035184;28;20492;-87
2021/10/18 08:07:16;;;;;;;448.40;429.70;;;8.60;99.90;;;;;;5035143;28;20479;-87
2021/10/18 08:09:43;;;;;;;430.57;412.53;;;8.70;99.90;;;;;;5035463;28;20448;-88
2021/10/18 08:12:11;;;;;;;426.23;408.27;;;8.80;99.90;;;;;;5035175;28;20542;-87
2021/10/18 08:14:39;;;;;;;444.07;425.37;;;9.00;99.90;;;;;;5033901;28;20544;-88
2021/10/18 08:17:06;;;;;;;360.30;345.20;;;9.20;99.90;;;;;;5035226;28;20551;-88
2021/10/18 08:19:33;;;;;;;285.40;274.17;;;9.30;99.90;;;;;;5035151;28;20487;-87
2021/10/18 08:22:00;;;;;;;289.83;278.03;;;9.30;99.90;;;;;;5034967;28;20511;-88
2021/10/18 08:24:27;;;;;;;162.60;154.50;;;9.70;99.90;;;;;;5016181;28;20485;-87
2021/10/18 08:26:53;;;;;;;193.93;184.87;;;9.70;99.90;;;;;;5014991;28;20471;-84
2021/10/18 08:29:22;;;;;;;166.43;158.60;;;9.80;99.90;;;;;;5013910;28;20540;-87
2021/10/18 08:31:49;;;;;;;116.13;109.83;;;10.00;99.90;;;;;;5010788;28;20488;-88
2021/10/18 08:34:54;;;;;;;72.17;67.47;;;10.10;99.90;;;;;;5013911;28;20461;-87
2021/10/18 08:44:17;;;;;;;35.03;31.93;;;10.40;99.90;;;;;;4889435;29;20482;-89
2021/10/18 08:46:47;;;;;;;33.37;29.63;;;10.50;99.90;;;;;;4967896;28;20541;-90
2021/10/18 08:49:18;;;;;;;33.30;30.23;;;10.50;99.90;;;;;;4995317;28;20965;-86
2021/10/18 08:51:58;;;;;;;27.70;25.10;;;10.50;99.90;;;;;;4995030;28;20485;-90
2021/10/18 08:54:24;;;;;;;33.50;23.97;;;10.60;99.90;;;;;;4996652;28;20461;-91
2021/10/18 08:56:52;;;;;;;23.23;20.73;;;10.70;99.90;;;;;;4997174;28;20545;-91
2021/10/18 08:59:19;;;;;;;21.77;16.17;;;10.80;99.90;;;;;;4994852;28;20458;-93
2021/10/18 09:01:55;;;;;;;24.37;15.50;;;11.10;99.90;;;;;;4993534;28;20458;-83
2021/10/18 09:04:26;;;;;;;19.87;14.60;;;11.20;99.90;;;;;;5017058;28;20893;-87
2021/10/18 09:06:54;;;;;;;14.43;12.53;;;11.30;99.30;;;;;;5021115;28;20461;-88
2021/10/18 09:09:28;;;;;;;21.37;13.40;;;11.60;99.00;;;;;;5019010;28;20461;-89
2021/10/18 09:12:00;;;;;;;17.30;13.17;;;11.70;94.90;;;;;;5020215;28;20448;-93
2021/10/18 09:14:27;;;;;;;22.17;13.67;;;11.90;93.80;;;;;;5017681;28;20515;-91
2021/10/18 09:17:02;;;;;;;20.20;12.27;;;12.00;91.50;;;;;;5020200;28;20453;-94
2021/10/18 09:19:29;;;;;;;18.43;11.67;;;12.30;88.30;;;;;;5021897;28;20512;-95
2021/10/18 09:21:58;;;;;;;20.93;12.80;;;12.70;84.80;;;;;;5014296;28;20457;-86
2021/10/18 09:24:43;;;;;;;18.77;10.60;;;12.80;80.00;;;;;;5013618;28;20524;-88
2021/10/18 09:27:17;;;;;;;14.40;10.13;;;13.30;76.20;;;;;;5014133;28;20435;-87
2021/10/18 09:29:48;;;;;;;15.60;10.37;;;13.70;73.40;;;;;;5012915;28;20513;-88
2021/10/18 09:32:28;;;;;;;14.40;9.60;;;13.90;68.30;;;;;;5013864;28;20465;-90
2021/10/18 09:35:04;;;;;;;14.40;9.30;;;14.10;66.20;;;;;;5013770;28;20472;-89
2021/10/18 09:37:59;;;;;;;14.83;9.00;;;14.40;65.00;;;;;;5014289;28;20459;-92
2021/10/18 09:40:46;;;;;;;16.63;10.40;;;14.40;62.60;;;;;;5012582;28;20522;-91
2021/10/18 10:51:37;;;;;;;23.40;15.43;;;15.30;48.80;;;;;;5006713;28;20475;-93
2021/10/18 10:54:07;;;;;;;18.50;14.40;;;14.80;52.60;;;;;;5011590;28;20465;-92
2021/10/18 10:56:43;;;;;;;18.53;14.20;;;14.70;52.90;;;;;;5015289;28;20509;-89
2021/10/18 10:59:24;;;;;;;22.43;14.70;;;15.10;54.60;;;;;;5014904;28;20460;-95
2021/10/18 11:01:58;;;;;;;18.80;14.40;;;15.60;51.70;;;;;;5015679;28;20555;-92
2021/10/18 11:04:46;;;;;;;21.87;14.87;;;16.60;49.00;;;;;;5015469;28;20458;-92
2021/10/18 11:07:44;;;;;;;19.67;14.60;;;17.90;42.40;;;;;;5015767;28;20462;-94
2021/10/18 11:10:17;;;;;;;17.80;13.97;;;18.50;39.10;;;;;;5015443;28;20601;-93
2021/10/18 11:12:48;;;;;;;19.40;13.90;;;19.40;36.30;;;;;;5015060;28;20463;-92
2021/10/18 11:15:18;;;;;;;18.00;12.90;;;19.70;31.20;;;;;;5015428;28;20547;-93
2021/10/18 11:17:53;;;;;;;14.83;12.20;;;19.70;30.40;;;;;;5015312;28;20827;-93
2021/10/18 11:20:24;;;;;;;15.70;11.77;;;19.70;29.60;;;;;;5015457;28;20541;-92
2021/10/18 11:22:56;;;;;;;18.67;12.20;;;18.60;30.30;;;;;;5014302;28;20502;-92
2021/10/18 11:25:26;;;;;;;15.87;12.00;;;19.00;33.90;;;;;;5015143;28;20496;-92
2021/10/18 11:27:56;;;;;;;15.03;12.27;;;18.60;34.00;;;;;;5015630;28;20460;-92
2021/10/18 11:30:29;;;;;;;21.20;12.60;;;18.70;33.80;;;;;;5015956;28;20958;-92
2021/10/18 11:32:59;;;;;;;17.03;11.33;;;18.70;31.50;;;;;;5008492;28;20465;-91
2021/10/18 11:35:35;;;;;;;15.20;10.93;;;18.90;31.20;;;;;;5016081;28;20447;-92
2021/10/18 11:38:06;;;;;;;19.80;14.23;;;19.10;30.50;;;;;;5016228;28;20461;-91
2021/10/18 11:40:36;;;;;;;26.47;13.53;;;19.20;31.20;;;;;;5015800;28;21003;-92
2021/10/18 11:43:13;;;;;;;15.47;13.20;;;19.40;30.00;;;;;;5014464;28;21282;-90
2021/10/18 11:45:44;;;;;;;16.70;11.90;;;20.10;29.80;;;;;;5015925;28;20487;-92
2021/10/18 11:48:16;;;;;;;17.07;12.80;;;20.00;28.20;;;;;;5015717;28;20456;-91
2021/10/18 11:50:52;;;;;;;17.03;12.53;;;19.90;27.00;;;;;;5015690;28;20502;-94
2021/10/18 11:53:21;;;;;;;15.57;11.77;;;19.70;27.60;;;;;;5015691;28;20509;-90
2021/10/18 11:55:55;;;;;;;17.30;12.77;;;20.10;27.50;;;;;;5015918;28;20458;-91
2021/10/18 11:58:25;;;;;;;14.77;12.50;;;19.80;26.90;;;;;;5014734;28;20455;-91
2021/10/18 12:01:02;;;;;;;17.03;12.87;;;19.90;26.90;;;;;;5015766;28;20917;-91
2021/10/18 12:03:39;;;;;;;17.30;12.87;;;19.70;25.90;;;;;;5015557;28;20462;-92
2021/10/18 12:06:11;;;;;;;16.47;12.60;;;20.20;24.90;;;;;;5015036;28;20994;-92
2021/10/18 12:14:19;;;;;;;16.07;13.43;;;19.30;27.80;;;;;;5447175;23;20260;-90
2021/10/18 12:16:52;;;;;;;18.63;14.37;;;19.30;27.70;;;;;;5075442;28;20461;-90
2021/10/18 12:19:24;;;;;;;19.60;13.77;;;19.60;26.80;;;;;;5075262;28;20453;-89
2021/10/18 12:21:55;;;;;;;18.80;14.90;;;19.60;26.90;;;;;;5075043;28;20459;-90
2021/10/18 12:27:29;;;;;;;21.23;14.50;;;19.30;26.50;;;;;;5074338;28;20508;-90
2021/10/18 12:30:36;;;;;;;18.97;14.90;;;18.90;27.90;;;;;;5073329;28;20464;-87
2021/10/18 12:33:15;;;;;;;20.70;13.77;;;19.00;30.00;;;;;;5074836;28;20546;-92
2021/10/18 12:35:59;;;;;;;18.30;13.83;;;19.20;27.00;;;;;;5074923;28;20480;-88
2021/10/18 12:38:40;;;;;;;17.80;12.20;;;19.10;27.70;;;;;;5074739;28;20498;-89
2021/10/18 12:41:18;;;;;;;19.67;12.43;;;19.40;26.60;;;;;;5074290;28;20890;-88
2021/10/18 12:44:19;;;;;;;16.03;12.83;;;19.70;26.20;;;;;;5073275;28;20514;-89
2021/10/18 12:46:50;;;;;;;17.33;14.43;;;19.00;26.70;;;;;;5073477;28;20478;-90
2021/10/18 12:49:32;;;;;;;23.03;13.70;;;19.00;27.50;;;;;;5074463;28;20459;-90
2021/10/18 12:52:04;;;;;;;21.03;14.30;;;18.90;29.20;;;;;;5054331;28;20976;-89
2021/10/18 12:54:51;;;;;;;19.47;14.00;;;18.50;29.90;;;;;;5054397;28;20966;-90
2021/10/18 12:57:25;;;;;;;20.90;14.73;;;18.10;30.60;;;;;;5054290;28;20452;-89
2021/10/18 13:00:07;;;;;;;17.70;13.63;;;17.80;31.30;;;;;;5053225;28;20455;-90
2021/10/18 13:02:36;;;;;;;20.83;12.67;;;18.00;33.40;;;;;;5054315;28;20465;-88
2021/10/18 13:05:20;;;;;;;17.57;13.10;;;18.10;33.60;;;;;;5054018;28;20484;-86
2021/10/18 13:08:05;;;;;;;20.53;12.83;;;17.90;33.30;;;;;;5053884;28;20460;-89
2021/10/18 13:10:36;;;;;;;20.40;13.90;;;17.80;33.80;;;;;;5054014;28;20880;-88
2021/10/18 13:13:10;;;;;;;20.70;12.33;;;17.50;35.50;;;;;;5052347;28;20495;-89
2021/10/18 13:15:40;;;;;;;20.57;13.83;;;17.40;35.80;;;;;;5054171;28;20465;-89
2021/10/18 13:18:15;;;;;;;21.33;13.70;;;17.20;37.90;;;;;;5052793;28;20982;-88
2021/10/18 13:20:43;;;;;;;21.77;13.77;;;17.10;37.90;;;;;;5054057;28;20884;-87
2021/10/18 13:23:14;;;;;;;18.97;13.60;;;17.10;38.30;;;;;;5053985;28;20449;-89
2021/10/18 13:25:45;;;;;;;19.23;13.07;;;17.10;38.80;;;;;;5053742;28;20496;-88
2021/10/18 13:28:16;;;;;;;19.93;13.33;;;16.80;39.20;;;;;;5052400;28;20518;-88
2021/10/18 13:30:44;;;;;;;24.70;14.20;;;16.80;40.90;;;;;;5053711;28;20543;-90
2021/10/18 13:33:23;;;;;;;24.90;15.27;;;16.60;41.20;;;;;;5053974;28;20470;-91
2021/10/18 13:35:52;;;;;;;19.87;14.47;;;16.30;40.90;;;;;;5053665;28;20455;-88
2021/10/18 13:38:20;;;;;;;29.97;13.47;;;16.30;43.70;;;;;;5053484;28;20567;-88
2021/10/18 13:40:49;;;;;;;21.83;14.83;;;16.30;43.90;;;;;;5053490;28;20447;-88
2021/10/18 13:43:23;;;;;;;20.40;14.03;;;16.10;44.10;;;;;;5052089;28;20554;-89
2021/10/18 13:45:53;;;;;;;19.47;14.20;;;16.00;44.30;;;;;;5053269;28;20491;-88
2021/10/18 13:48:30;;;;;;;22.10;14.27;;;16.00;46.70;;;;;;5053445;28;20485;-89
2021/10/18 13:50:57;;;;;;;21.60;15.17;;;16.00;44.90;;;;;;5053545;28;20470;-89
2021/10/18 13:53:30;;;;;;;23.03;15.00;;;15.80;46.40;;;;;;5053097;28;20987;-89
2021/10/18 13:55:58;;;;;;;21.40;13.30;;;15.90;47.50;;;;;;5053293;28;20455;-89